Time;durP1;ratioP1;P1;durP2;ratioP2;P2;SDS_P1;SDS_P2;PMS_P1;PMS_P2;Temp;Humidity;BMP_temperature;BMP_pressure;BME280_temperature;BME280_humidity;BME280_pressure;Samples;Min_cycle;Max_cycle;Signal;HPM_P1;HPM_P2
2021/10/24 00:00:45;;;;;;;;;;;25.00;41.40;;;;;;5096221;28;19959;-80
2021/10/24 00:03:13;;;;;;;;;;;25.00;41.40;;;;;;5130029;27;20333;-80
2021/10/24 00:05:39;;;;;;;;;;;25.00;41.50;;;;;;5096591;28;19935;-80
2021/10/24 00:08:07;;;;;;;;;;;25.00;41.50;;;;;;5112722;28;19959;-82
2021/10/24 00:10:37;;;;;;;;;;;25.00;41.60;;;;;;5096371;28;19911;-81
2021/10/24 00:13:05;;;;;;;;;;;25.00;41.50;;;;;;5096268;28;19967;-77
2021/10/24 00:15:30;;;;;;;;;;;25.00;41.60;;;;;;5096585;28;20540;-82
2021/10/24 00:17:56;;;;;;;;;;;25.00;41.60;;;;;;5096182;28;19955;-79
2021/10/24 00:20:21;;;;;;;;;;;25.00;41.60;;;;;;5112583;28;19941;-77
2021/10/24 00:22:47;;;;;;;;;;;25.00;41.60;;;;;;5096240;28;19908;-79
2021/10/24 00:25:12;;;;;;;;;;;25.00;41.60;;;;;;5096325;28;19912;-80
2021/10/24 00:27:40;;;;;;;;;;;25.00;41.60;;;;;;5096027;28;19931;-81
2021/10/24 00:30:05;;;;;;;;;;;25.00;41.60;;;;;;5096061;28;19914;-78
2021/10/24 00:32:31;;;;;;;;;;;25.00;41.60;;;;;;5095062;28;19991;-80
2021/10/24 00:34:57;;;;;;;;;;;25.00;41.60;;;;;;5129313;27;19908;-79
2021/10/24 00:37:22;;;;;;;;;;;25.00;41.60;;;;;;5094853;28;19916;-78
2021/10/24 00:39:48;;;;;;;;;;;25.00;41.70;;;;;;5096366;28;19908;-82
2021/10/24 00:42:13;;;;;;;;;;;25.00;41.70;;;;;;5096066;28;20332;-78
2021/10/24 00:44:38;;;;;;;;;;;25.00;41.70;;;;;;5095519;28;19919;-80
2021/10/24 00:47:05;;;;;;;;;;;25.00;41.70;;;;;;5095785;28;19919;-76
2021/10/24 00:49:31;;;;;;;;;;;25.00;41.80;;;;;;5095776;28;20337;-78
2021/10/24 00:51:59;;;;;;;;;;;25.00;41.70;;;;;;5094817;28;19923;-81
2021/10/24 00:54:28;;;;;;;;;;;25.00;41.80;;;;;;5095875;28;19908;-79
2021/10/24 00:56:58;;;;;;;;;;;25.00;41.80;;;;;;5128248;27;19999;-80
2021/10/24 00:59:24;;;;;;;;;;;25.00;41.80;;;;;;5094843;28;19916;-78
2021/10/24 01:01:52;;;;;;;;;;;25.00;41.80;;;;;;5128643;27;19934;-77
2021/10/24 01:04:19;;;;;;;;;;;25.00;41.80;;;;;;5095536;28;19908;-76
2021/10/24 01:06:45;;;;;;;;;;;25.00;41.80;;;;;;5127649;27;19912;-75
2021/10/24 01:09:12;;;;;;;;;;;25.00;41.90;;;;;;5128260;27;19908;-77
2021/10/24 01:11:41;;;;;;;;;;;25.00;41.90;;;;;;5094641;28;19915;-78
2021/10/24 01:14:07;;;;;;;;;;;25.00;41.90;;;;;;5128096;27;19943;-80
2021/10/24 01:16:36;;;;;;;;;;;25.00;41.90;;;;;;5128683;27;19962;-79
2021/10/24 01:19:02;;;;;;;;;;;25.00;41.90;;;;;;5094331;28;19958;-80
2021/10/24 01:21:30;;;;;;;;;;;25.00;41.90;;;;;;5095182;28;19908;-76
2021/10/24 01:23:55;;;;;;;;;;;24.90;41.90;;;;;;5095076;28;19908;-80
2021/10/24 01:26:24;;;;;;;;;;;25.00;42.00;;;;;;5095380;28;19915;-78
2021/10/24 01:28:50;;;;;;;;;;;24.90;41.90;;;;;;5128398;27;19993;-80
2021/10/24 01:31:15;;;;;;;;;;;25.00;42.00;;;;;;5128485;27;19970;-77
2021/10/24 01:33:43;;;;;;;;;;;24.90;41.90;;;;;;5095157;28;19908;-78
2021/10/24 01:36:09;;;;;;;;;;;24.90;41.90;;;;;;5094048;28;20006;-76
2021/10/24 01:38:35;;;;;;;;;;;24.90;42.00;;;;;;5093877;28;20028;-80
2021/10/24 01:41:00;;;;;;;;;;;24.90;41.90;;;;;;5128243;27;19908;-80
2021/10/24 01:43:26;;;;;;;;;;;25.00;42.00;;;;;;5094292;28;19962;-78
2021/10/24 01:45:52;;;;;;;;;;;24.90;42.00;;;;;;5095284;28;20011;-79
2021/10/24 01:48:17;;;;;;;;;;;25.00;42.00;;;;;;5094846;28;19912;-77
2021/10/24 01:50:43;;;;;;;;;;;24.90;42.00;;;;;;5128225;28;19908;-80
2021/10/24 01:53:14;;;;;;;;;;;24.90;42.10;;;;;;5094808;28;20260;-78
2021/10/24 01:55:42;;;;;;;;;;;25.00;42.10;;;;;;5128092;28;20387;-77
2021/10/24 01:58:08;;;;;;;;;;;25.00;42.10;;;;;;5094683;28;19908;-77
2021/10/24 02:00:40;;;;;;;;;;;24.90;42.10;;;;;;5094847;28;20309;-76
2021/10/24 02:03:05;;;;;;;;;;;24.90;42.10;;;;;;5094839;28;19908;-80
2021/10/24 02:05:33;;;;;;;;;;;24.90;42.10;;;;;;5094817;28;20256;-80
2021/10/24 02:08:01;;;;;;;;;;;24.90;42.60;;;;;;5094596;28;19912;-79
2021/10/24 02:10:26;;;;;;;;;;;24.90;42.10;;;;;;5094715;28;19909;-78
2021/10/24 02:12:54;;;;;;;;;;;24.90;42.10;;;;;;5094232;28;19922;-78
2021/10/24 02:15:19;;;;;;;;;;;24.90;42.10;;;;;;5093802;28;19908;-80
2021/10/24 02:17:45;;;;;;;;;;;24.90;42.20;;;;;;5113403;28;20424;-77
2021/10/24 02:20:10;;;;;;;;;;;24.90;42.10;;;;;;5114823;28;19908;-79
2021/10/24 02:22:36;;;;;;;;;;;24.90;42.20;;;;;;5098731;28;19915;-79
2021/10/24 02:25:02;;;;;;;;;;;24.90;42.20;;;;;;5131842;27;19912;-78
2021/10/24 02:27:30;;;;;;;;;;;24.90;42.20;;;;;;5098394;28;19935;-80
2021/10/24 02:29:55;;;;;;;;;;;24.90;42.20;;;;;;5097595;28;19912;-79
2021/10/24 02:32:23;;;;;;;;;;;24.90;42.20;;;;;;5098352;28;20230;-80
2021/10/24 02:34:49;;;;;;;;;;;24.90;42.80;;;;;;5098438;28;19919;-78
2021/10/24 02:37:14;;;;;;;;;;;24.90;42.20;;;;;;5097530;28;19955;-78
2021/10/24 02:39:40;;;;;;;;;;;24.90;42.30;;;;;;5131704;27;19919;-80
2021/10/24 02:42:11;;;;;;;;;;;24.90;42.30;;;;;;5098384;28;20226;-81
2021/10/24 02:44:39;;;;;;;;;;;24.80;42.30;;;;;;5097458;28;19908;-78
2021/10/24 02:47:04;;;;;;;;;;;24.90;42.30;;;;;;5098312;28;19923;-81
2021/10/24 02:49:30;;;;;;;;;;;24.80;42.30;;;;;;5131459;27;19908;-78
2021/10/24 02:51:55;;;;;;;;;;;24.80;42.30;;;;;;5131464;27;19918;-80
2021/10/24 02:54:21;;;;;;;;;;;24.80;42.30;;;;;;5098204;28;19952;-81
2021/10/24 02:56:49;;;;;;;;;;;24.80;42.30;;;;;;5131556;27;19909;-80
2021/10/24 02:59:15;;;;;;;;;;;24.80;42.30;;;;;;5130588;27;19995;-79
2021/10/24 03:01:41;;;;;;;;;;;24.80;42.30;;;;;;5097538;28;20016;-79
2021/10/24 03:04:06;;;;;;;;;;;24.80;42.30;;;;;;5096855;28;19995;-79
2021/10/24 03:06:32;;;;;;;;;;;24.80;42.30;;;;;;5096926;28;19923;-79
2021/10/24 03:08:57;;;;;;;;;;;24.80;42.30;;;;;;5130903;27;20015;-79
2021/10/24 03:11:23;;;;;;;;;;;24.80;42.30;;;;;;5131046;27;19957;-78
2021/10/24 03:13:51;;;;;;;;;;;24.80;42.40;;;;;;5131235;27;20015;-80
2021/10/24 03:16:18;;;;;;;;;;;24.80;42.40;;;;;;5097592;28;19908;-81
2021/10/24 03:18:46;;;;;;;;;;;24.80;42.40;;;;;;5097847;28;19962;-80
2021/10/24 03:21:12;;;;;;;;;;;24.90;42.40;;;;;;5113143;28;19908;-75
2021/10/24 03:23:37;;;;;;;;;;;24.80;42.40;;;;;;5130748;27;19919;-79
2021/10/24 03:26:03;;;;;;;;;;;24.90;42.40;;;;;;5096582;28;19950;-81
2021/10/24 03:28:28;;;;;;;;;;;24.80;42.30;;;;;;5095881;28;19911;-81
2021/10/24 03:30:56;;;;;;;;;;;24.90;42.40;;;;;;5097368;28;19908;-77
2021/10/24 03:33:21;;;;;;;;;;;24.90;42.40;;;;;;5129993;27;19918;-78
2021/10/24 03:35:47;;;;;;;;;;;24.90;42.30;;;;;;5096326;28;20315;-78
2021/10/24 03:38:12;;;;;;;;;;;24.90;42.30;;;;;;5130427;27;19920;-82
2021/10/24 03:40:38;;;;;;;;;;;24.90;42.30;;;;;;5097154;28;19912;-79
2021/10/24 03:43:03;;;;;;;;;;;24.80;42.30;;;;;;5096210;28;19912;-79
2021/10/24 03:45:31;;;;;;;;;;;24.80;42.30;;;;;;5096220;28;19908;-78
2021/10/24 03:47:57;;;;;;;;;;;24.80;42.30;;;;;;5129872;27;20256;-81
2021/10/24 03:50:22;;;;;;;;;;;24.80;42.30;;;;;;5096874;28;19943;-81
2021/10/24 03:52:48;;;;;;;;;;;24.90;42.30;;;;;;5096837;28;19908;-79
2021/10/24 03:55:14;;;;;;;;;;;24.80;42.20;;;;;;5095982;28;19918;-77
2021/10/24 03:57:39;;;;;;;;;;;24.90;42.30;;;;;;5096819;28;19908;-80
2021/10/24 04:00:05;;;;;;;;;;;24.90;42.30;;;;;;5130169;27;19908;-78
2021/10/24 04:02:32;;;;;;;;;;;24.80;42.40;;;;;;5113009;28;20352;-80
2021/10/24 04:05:00;;;;;;;;;;;24.80;42.30;;;;;;5095981;28;19919;-78
2021/10/24 04:07:26;;;;;;;;;;;24.80;42.30;;;;;;5096897;28;20269;-78
2021/10/24 04:09:52;;;;;;;;;;;24.80;42.30;;;;;;5096780;28;20309;-77
2021/10/24 04:12:19;;;;;;;;;;;24.80;42.40;;;;;;5096463;28;19915;-80
2021/10/24 04:14:47;;;;;;;;;;;24.80;42.90;;;;;;5096325;28;20356;-81
2021/10/24 04:17:12;;;;;;;;;;;24.80;42.30;;;;;;5096658;28;20041;-79
2021/10/24 04:19:40;;;;;;;;;;;24.80;42.40;;;;;;5096463;28;19999;-79
2021/10/24 04:22:06;;;;;;;;;;;24.80;42.30;;;;;;5096595;28;20388;-77
2021/10/24 04:24:31;;;;;;;;;;;24.80;42.40;;;;;;5096419;28;20353;-79
2021/10/24 04:26:57;;;;;;;;;;;24.80;42.30;;;;;;5096531;28;19908;-78
2021/10/24 04:29:25;;;;;;;;;;;24.80;42.30;;;;;;5096213;28;19931;-79
2021/10/24 04:31:51;;;;;;;;;;;24.80;42.30;;;;;;5096077;28;19994;-80
2021/10/24 04:34:22;;;;;;;;;;;24.80;42.40;;;;;;5129351;27;19958;-79
2021/10/24 04:36:47;;;;;;;;;;;24.80;42.40;;;;;;5128812;27;20329;-79
2021/10/24 04:39:13;;;;;;;;;;;24.80;42.40;;;;;;5095891;28;19927;-79
2021/10/24 04:41:41;;;;;;;;;;;24.80;42.10;;;;;;5094097;28;20337;-79
2021/10/24 04:44:07;;;;;;;;;;;24.60;35.00;;;;;;5128350;27;19915;-80
2021/10/24 04:46:32;;;;;;;;;;;24.10;33.40;;;;;;5129150;27;19966;-78
2021/10/24 04:49:00;;;;;;;;;;;23.60;33.50;;;;;;5095965;28;20003;-77
2021/10/24 04:51:26;;;;;;;;;;;23.20;33.70;;;;;;5095751;28;19908;-75
2021/10/24 04:53:51;;;;;;;;;;;22.50;34.90;;;;;;5096017;28;20018;-76
2021/10/24 04:56:17;;;;;;;;;;;22.00;36.00;;;;;;5094942;28;19908;-77
2021/10/24 04:58:42;;;;;;;;;;;21.80;36.60;;;;;;5095648;28;19963;-80
2021/10/24 05:01:08;;;;;;;;;;;21.70;37.00;;;;;;5128783;27;19919;-78
2021/10/24 05:03:37;;;;;;;;;;;21.80;37.80;;;;;;5095608;28;20359;-80
2021/10/24 05:06:02;;;;;;;;;;;22.20;38.40;;;;;;5094694;28;20371;-79
2021/10/24 05:08:30;;;;;;;;;;;22.60;38.50;;;;;;5128758;27;19912;-80
2021/10/24 05:10:56;;;;;;;;;;;22.80;38.30;;;;;;5128269;27;19974;-77
2021/10/24 05:13:21;;;;;;;;;;;23.00;38.60;;;;;;5094642;28;19907;-81
2021/10/24 05:15:47;;;;;;;;;;;23.20;37.90;;;;;;5095516;28;19938;-79
2021/10/24 05:18:14;;;;;;;;;;;23.40;38.00;;;;;;5095662;28;19912;-79
2021/10/24 05:20:42;;;;;;;;;;;23.50;37.90;;;;;;5094515;28;19948;-80
2021/10/24 05:23:08;;;;;;;;;;;23.60;38.00;;;;;;5127859;27;20307;-79
2021/10/24 05:25:36;;;;;;;;;;;23.70;38.00;;;;;;5095204;28;19912;-80
2021/10/24 05:28:02;;;;;;;;;;;23.80;38.00;;;;;;5128007;27;19924;-82
2021/10/24 05:30:27;;;;;;;;;;;23.90;38.10;;;;;;5111252;28;20314;-78
2021/10/24 05:32:55;;;;;;;;;;;23.90;38.10;;;;;;5095158;28;19908;-78
2021/10/24 05:35:23;;;;;;;;;;;24.00;38.10;;;;;;5095132;28;19908;-79
2021/10/24 05:37:49;;;;;;;;;;;24.10;38.20;;;;;;5094858;28;20037;-80
2021/10/24 05:40:14;;;;;;;;;;;24.10;38.30;;;;;;5111518;28;19959;-81
2021/10/24 05:42:42;;;;;;;;;;;24.20;38.60;;;;;;5094949;28;19908;-81
2021/10/24 05:45:08;;;;;;;;;;;24.20;38.80;;;;;;5095060;28;19999;-78
2021/10/24 05:47:33;;;;;;;;;;;24.20;38.90;;;;;;5093951;28;20010;-81
2021/10/24 05:50:01;;;;;;;;;;;24.20;38.90;;;;;;5095124;28;19998;-83
2021/10/24 05:52:27;;;;;;;;;;;24.20;39.30;;;;;;5098911;28;19919;-84
2021/10/24 05:54:53;;;;;;;;;;;24.30;42.30;;;;;;5134698;27;20002;-80
2021/10/24 05:57:21;;;;;;;;;;;24.30;44.50;;;;;;5135151;27;19943;-83
2021/10/24 05:59:49;;;;;;;;;;;24.40;44.40;;;;;;5100708;28;19908;-81
2021/10/24 06:02:14;;;;;;;;;;;24.40;44.10;;;;;;5134441;27;20360;-81
2021/10/24 06:04:40;;;;;;;;;;;24.40;44.20;;;;;;5101792;28;19908;-83
2021/10/24 06:07:09;;;;;;;;;;;24.50;44.40;;;;;;5134774;27;19908;-81
2021/10/24 06:09:51;;;;;;;;;;;24.50;44.30;;;;;;5101584;28;19912;-81
2021/10/24 06:12:40;;;;;;;;;;;24.50;44.20;;;;;;5101556;28;19918;-83
2021/10/24 06:15:03;;;;;;;;;;;24.50;44.20;;;;;;5129058;27;20276;-81
2021/10/24 06:17:29;;;;;;;;;;;24.50;44.00;;;;;;5117918;28;19908;-82
2021/10/24 06:19:55;;;;;;;;;;;24.50;44.00;;;;;;5101578;28;19908;-80
2021/10/24 06:22:20;;;;;;;;;;;24.50;43.90;;;;;;5134850;27;19919;-80
2021/10/24 06:24:46;;;;;;;;;;;24.50;43.80;;;;;;5134862;27;20344;-82
2021/10/24 06:27:11;;;;;;;;;;;24.50;43.90;;;;;;5101253;28;19916;-82
2021/10/24 06:29:37;;;;;;;;;;;24.50;43.90;;;;;;5101677;28;19965;-82
2021/10/24 06:32:06;;;;;;;;;;;24.50;43.80;;;;;;5117412;28;19981;-81
2021/10/24 06:34:31;;;;;;;;;;;24.50;43.70;;;;;;5134808;27;19908;-81
2021/10/24 06:36:57;;;;;;;;;;;24.50;43.70;;;;;;5101281;28;19919;-84
2021/10/24 06:39:22;;;;;;;;;;;24.50;43.70;;;;;;5101321;28;20318;-81
2021/10/24 06:41:50;;;;;;;;;;;24.50;43.80;;;;;;5101222;28;19909;-82
2021/10/24 06:44:16;;;;;;;;;;;24.60;43.80;;;;;;5100450;28;19999;-80
2021/10/24 06:46:44;;;;;;;;;;;24.60;43.80;;;;;;5100790;28;19950;-83
2021/10/24 06:49:14;;;;;;;;;;;24.50;43.70;;;;;;5133748;27;19912;-82
2021/10/24 06:51:40;;;;;;;;;;;24.50;43.70;;;;;;5100881;28;19951;-80
2021/10/24 06:54:08;;;;;;;;;;;24.50;43.80;;;;;;5101393;28;19919;-81
2021/10/24 06:56:36;;;;;;;;;;;24.60;43.80;;;;;;5101361;28;19908;-80
2021/10/24 06:59:01;;;;;;;;;;;24.60;43.80;;;;;;5101044;28;19929;-81
2021/10/24 07:01:27;;;;;;;;;;;24.60;43.70;;;;;;5134471;27;20011;-83
2021/10/24 07:03:57;;;;;;;;;;;24.60;43.80;;;;;;5098554;28;19919;-80
2021/10/24 07:06:23;;;;;;;;;;;24.60;43.80;;;;;;5130507;27;19912;-82
2021/10/24 07:08:51;;;;;;;;;;;24.60;43.80;;;;;;5097945;28;20487;-79
2021/10/24 07:11:19;;;;;;;;;;;24.60;43.80;;;;;;5097846;28;20246;-79
2021/10/24 07:13:45;;;;;;;;;;;24.60;43.80;;;;;;5097644;28;20349;-79
2021/10/24 07:16:11;;;;;;;;;;;24.60;43.80;;;;;;5097615;28;19962;-82
2021/10/24 07:18:39;;;;;;;;;;;24.60;44.30;;;;;;5097638;28;19908;-83
2021/10/24 07:21:04;;;;;;;;;;;24.60;43.70;;;;;;5130893;27;19912;-80
2021/10/24 07:23:30;;;;;;;;;;;24.60;43.70;;;;;;5096706;28;19908;-84
2021/10/24 07:25:57;;;;;;;;;;;24.60;43.70;;;;;;5097701;28;19916;-80
2021/10/24 07:28:23;;;;;;;;;;;24.60;43.80;;;;;;5130261;27;19916;-82
2021/10/24 07:30:48;;;;;;;;;;;24.70;43.80;;;;;;5097426;28;20435;-81
2021/10/24 07:33:14;;;;;;;;;;;24.70;43.80;;;;;;5097365;28;19952;-80
2021/10/24 07:35:42;;;;;;;;;;;24.70;43.70;;;;;;5097289;28;20004;-80
2021/10/24 07:38:11;;;;;;;;;;;24.70;43.80;;;;;;5112743;28;19962;-81
2021/10/24 07:40:36;;;;;;;;;;;24.60;43.80;;;;;;5097225;28;19908;-81
2021/10/24 07:43:05;;;;;;;;;;;24.60;43.90;;;;;;5097233;28;19923;-80
2021/10/24 07:45:30;;;;;;;;;;;24.70;43.90;;;;;;5129793;27;19958;-84
2021/10/24 07:47:56;;;;;;;;;;;24.60;43.90;;;;;;5096222;28;20313;-84
2021/10/24 07:50:23;;;;;;;;;;;24.60;43.80;;;;;;5096211;28;20006;-80
2021/10/24 07:52:49;;;;;;;;;;;24.70;43.90;;;;;;5130102;27;19970;-81
2021/10/24 07:55:19;;;;;;;;;;;24.60;43.80;;;;;;5113277;28;19908;-81
2021/10/24 07:57:45;;;;;;;;;;;24.70;43.80;;;;;;5096925;28;19995;-80
2021/10/24 08:00:10;;;;;;;;;;;24.60;43.70;;;;;;5096876;28;19958;-81
2021/10/24 08:02:36;;;;;;;;;;;24.60;43.70;;;;;;5112750;28;19998;-83
2021/10/24 08:05:04;;;;;;;;;;;24.60;43.70;;;;;;5096642;28;19916;-79
2021/10/24 08:07:30;;;;;;;;;;;24.70;43.70;;;;;;5129486;27;19948;-80
2021/10/24 08:09:55;;;;;;;;;;;24.60;43.70;;;;;;5129977;27;19908;-83
2021/10/24 08:12:23;;;;;;;;;;;24.60;43.80;;;;;;5096463;28;19908;-80
2021/10/24 08:14:49;;;;;;;;;;;24.60;43.80;;;;;;5095500;28;19908;-82
2021/10/24 08:17:17;;;;;;;;;;;24.50;43.80;;;;;;5095712;28;20047;-82
2021/10/24 08:19:43;;;;;;;;;;;24.50;43.90;;;;;;5096619;28;20017;-81
2021/10/24 08:22:08;;;;;;;;;;;24.50;43.80;;;;;;5129460;27;20333;-80
2021/10/24 08:24:36;;;;;;;;;;;24.50;43.80;;;;;;5129852;27;19923;-80
2021/10/24 08:27:02;;;;;;;;;;;24.50;43.80;;;;;;5096298;28;20356;-83
2021/10/24 08:29:27;;;;;;;;;;;24.50;43.70;;;;;;5095233;28;19908;-83
2021/10/24 08:31:54;;;;;;;;;;;24.50;43.70;;;;;;5096154;28;20252;-85
2021/10/24 08:34:22;;;;;;;;;;;24.60;43.60;;;;;;5095542;28;20293;-82
2021/10/24 08:36:48;;;;;;;;;;;24.60;43.40;;;;;;5096235;28;20345;-83
2021/10/24 08:39:13;;;;;;;;;;;24.80;43.20;;;;;;5095873;28;20008;-84
2021/10/24 08:41:41;;;;;;;;;;;24.90;42.90;;;;;;5095472;28;19908;-82
2021/10/24 08:44:09;;;;;;;;;;;25.00;42.60;;;;;;5094941;28;20356;-81
2021/10/24 08:46:35;;;;;;;;;;;25.10;42.50;;;;;;5111803;28;19965;-81
2021/10/24 08:49:00;;;;;;;;;;;25.20;42.30;;;;;;5095992;28;19916;-84
2021/10/24 08:51:28;;;;;;;;;;;25.30;42.10;;;;;;5111980;28;20252;-80
2021/10/24 08:53:54;;;;;;;;;;;25.40;41.90;;;;;;5096063;28;20357;-83
2021/10/24 08:56:21;;;;;;;;;;;25.40;41.80;;;;;;5095018;28;19999;-84
2021/10/24 08:58:47;;;;;;;;;;;25.40;41.80;;;;;;5129144;27;19951;-84
2021/10/24 09:01:15;;;;;;;;;;;25.50;41.80;;;;;;5128972;27;19923;-84
2021/10/24 09:04:01;;;;;;;;;;;25.50;41.80;;;;;;5094817;28;19908;-83
2021/10/24 09:06:41;;;;;;;;;;;25.50;41.70;;;;;;5091440;28;20049;-82
2021/10/24 09:09:14;;;;;;;;;;;25.50;41.70;;;;;;5094844;28;19913;-81
2021/10/24 09:11:40;;;;;;;;;;;25.50;41.60;;;;;;5128709;27;19908;-83
2021/10/24 09:14:08;;;;;;;;;;;25.50;41.70;;;;;;5129027;27;19915;-84
2021/10/24 09:16:52;;;;;;;;;;;25.50;41.60;;;;;;5111220;28;20257;-81
2021/10/24 09:19:20;;;;;;;;;;;25.50;41.60;;;;;;5128717;27;19950;-84
2021/10/24 09:21:45;;;;;;;;;;;25.60;41.60;;;;;;5094476;28;20010;-84
2021/10/24 09:24:11;;;;;;;;;;;25.60;41.60;;;;;;5095412;28;19953;-82
2021/10/24 09:26:39;;;;;;;;;;;25.60;41.60;;;;;;5128280;27;19919;-84
2021/10/24 09:29:09;;;;;;;;;;;25.60;41.60;;;;;;5095156;28;19912;-83
2021/10/24 09:31:34;;;;;;;;;;;25.60;41.60;;;;;;5128287;27;19934;-84
2021/10/24 09:34:12;;;;;;;;;;;25.60;41.50;;;;;;5095209;28;20392;-82
2021/10/24 09:37:07;;;;;;;;;;;25.60;41.50;;;;;;5095389;28;20256;-83
2021/10/24 09:39:36;;;;;;;;;;;25.60;41.50;;;;;;5085291;28;20269;-84
2021/10/24 09:42:13;;;;;;;;;;;25.60;41.50;;;;;;5127566;27;19908;-83
2021/10/24 09:44:58;;;;;;;;;;;25.60;41.50;;;;;;5095137;28;19977;-83
2021/10/24 09:47:25;;;;;;;;;;;25.60;41.50;;;;;;5094054;28;19912;-84
2021/10/24 09:49:53;;;;;;;;;;;25.60;41.50;;;;;;5094150;28;20265;-85
2021/10/24 09:52:26;;;;;;;;;;;25.60;41.50;;;;;;5110622;28;19916;-80
2021/10/24 09:54:51;;;;;;;;;;;25.60;41.50;;;;;;5094084;28;19908;-84
2021/10/24 09:57:19;;;;;;;;;;;25.60;41.50;;;;;;5094876;28;20326;-82
2021/10/24 09:59:45;;;;;;;;;;;25.60;42.00;;;;;;5127501;28;19916;-82
2021/10/24 10:02:10;;;;;;;;;;;25.60;41.40;;;;;;5128090;28;19985;-80
2021/10/24 10:04:36;;;;;;;;;;;25.60;41.40;;;;;;5094966;28;20003;-84
2021/10/24 10:07:01;;;;;;;;;;;25.60;41.40;;;;;;5094740;28;19999;-82
2021/10/24 10:09:27;;;;;;;;;;;25.60;41.40;;;;;;5093933;28;20248;-83
2021/10/24 10:11:55;;;;;;;;;;;25.60;41.40;;;;;;5094913;28;19923;-82
2021/10/24 10:14:30;;;;;;;;;;;25.60;41.40;;;;;;5095962;28;19908;-82
2021/10/24 10:17:07;;;;;;;;;;;25.60;41.40;;;;;;5111151;28;19951;-84
2021/10/24 10:19:33;;;;;;;;;;;25.60;41.40;;;;;;5111211;28;19947;-83
2021/10/24 10:22:18;;;;;;;;;;;25.60;41.40;;;;;;5094032;28;20337;-83
2021/10/24 10:24:44;;;;;;;;;;;25.60;41.50;;;;;;5095034;28;19908;-81
2021/10/24 10:27:28;;;;;;;;;;;25.60;41.40;;;;;;5094877;28;19908;-81
2021/10/24 10:29:57;;;;;;;;;;;25.60;41.40;;;;;;5093807;28;19920;-83
2021/10/24 10:32:31;;;;;;;;;;;25.50;41.40;;;;;;5110944;28;19912;-83
2021/10/24 10:34:57;;;;;;;;;;;25.50;41.40;;;;;;5110723;28;20337;-82
2021/10/24 10:37:42;;;;;;;;;;;25.50;41.40;;;;;;5094504;28;19931;-82
2021/10/24 10:40:12;;;;;;;;;;;25.50;41.40;;;;;;5097606;28;19908;-81
2021/10/24 10:42:42;;;;;;;;;;;25.50;41.40;;;;;;5098460;28;19909;-82
2021/10/24 10:45:16;;;;;;;;;;;25.50;41.50;;;;;;5098580;28;20256;-81
2021/10/24 10:48:20;;;;;;;;;;;25.50;41.50;;;;;;5097214;28;19944;-83
2021/10/24 10:50:46;;;;;;;;;;;25.50;41.50;;;;;;5059491;28;20375;-82
2021/10/24 10:53:19;;;;;;;;;;;25.50;41.60;;;;;;5059414;28;19908;-82
2021/10/24 10:56:03;;;;;;;;;;;25.50;41.60;;;;;;5059475;28;19909;-79
2021/10/24 10:58:34;;;;;;;;;;;25.50;41.60;;;;;;5059489;28;19936;-80
2021/10/24 11:01:00;;;;;;;;;;;25.50;41.60;;;;;;5059939;28;19920;-83
2021/10/24 11:03:44;;;;;;;;;;;25.50;41.60;;;;;;5059381;28;19908;-83
2021/10/24 11:06:13;;;;;;;;;;;25.40;41.60;;;;;;5076206;28;20006;-82
2021/10/24 11:08:48;;;;;;;;;;;25.40;41.60;;;;;;5075780;28;19913;-80
2021/10/24 11:11:16;;;;;;;;;;;25.40;41.60;;;;;;5059254;28;19909;-82
2021/10/24 11:13:42;;;;;;;;;;;25.40;41.60;;;;;;5059160;28;19948;-84
2021/10/24 11:16:25;;;;;;;;;;;25.40;41.60;;;;;;5059073;28;19951;-82
2021/10/24 11:18:51;;;;;;;;;;;25.40;41.60;;;;;;5075683;28;19908;-81
2021/10/24 11:21:37;;;;;;;;;;;25.40;41.60;;;;;;5056184;28;19908;-84
2021/10/24 11:24:03;;;;;;;;;;;25.40;41.60;;;;;;5097856;28;19912;-82
2021/10/24 11:26:28;;;;;;;;;;;25.40;41.70;;;;;;5113783;28;19918;-87
2021/10/24 11:28:54;;;;;;;;;;;25.40;41.70;;;;;;5130953;27;20114;-81
2021/10/24 11:31:19;;;;;;;;;;;25.40;41.70;;;;;;5113876;28;19942;-80
2021/10/24 11:33:54;;;;;;;;;;;25.40;41.70;;;;;;5130799;27;19943;-84
2021/10/24 11:36:23;;;;;;;;;;;25.40;42.30;;;;;;5096764;28;19916;-82
2021/10/24 11:38:48;;;;;;;;;;;25.40;41.70;;;;;;5130696;27;19931;-83
2021/10/24 11:41:16;;;;;;;;;;;25.40;41.70;;;;;;5095792;28;20205;-81
2021/10/24 11:43:42;;;;;;;;;;;25.40;41.70;;;;;;5130523;27;19912;-83
2021/10/24 11:46:10;;;;;;;;;;;25.40;41.70;;;;;;5130446;27;19983;-80
2021/10/24 11:48:36;;;;;;;;;;;25.40;41.70;;;;;;5096259;28;19912;-82
2021/10/24 11:51:04;;;;;;;;;;;25.40;41.70;;;;;;5096656;28;19908;-82
2021/10/24 11:53:34;;;;;;;;;;;25.40;41.70;;;;;;5112843;28;19919;-84
2021/10/24 11:56:01;;;;;;;;;;;25.40;41.70;;;;;;5096741;28;19908;-81
2021/10/24 11:58:39;;;;;;;;;;;25.40;41.80;;;;;;5113172;28;19933;-85
2021/10/24 12:01:09;;;;;;;;;;;25.40;41.70;;;;;;5111464;28;19908;-81
2021/10/24 12:03:35;;;;;;;;;;;25.40;41.70;;;;;;5130136;27;19912;-82
2021/10/24 12:06:02;;;;;;;;;;;25.40;41.70;;;;;;5130222;27;19915;-81
2021/10/24 12:08:46;;;;;;;;;;;25.40;41.70;;;;;;5112834;28;20023;-83
2021/10/24 12:11:16;;;;;;;;;;;25.40;41.80;;;;;;5096759;28;20322;-81
2021/10/24 12:13:42;;;;;;;;;;;25.30;41.90;;;;;;5129963;27;20345;-86
2021/10/24 12:16:26;;;;;;;;;;;25.30;41.90;;;;;;5130254;27;19916;-84
2021/10/24 12:19:12;;;;;;;;;;;25.30;42.00;;;;;;5095601;28;19912;-85
2021/10/24 12:21:38;;;;;;;;;;;25.30;42.00;;;;;;5112593;28;20336;-83
2021/10/24 12:24:20;;;;;;;;;;;25.20;42.10;;;;;;5096647;28;19912;-79
2021/10/24 12:26:45;;;;;;;;;;;25.20;42.10;;;;;;5112934;28;20343;-79
2021/10/24 12:29:11;;;;;;;;;;;25.20;42.20;;;;;;5112472;28;19912;-81
2021/10/24 12:31:40;;;;;;;;;;;25.10;42.20;;;;;;5112759;28;19931;-83
2021/10/24 12:34:10;;;;;;;;;;;25.20;42.20;;;;;;5112116;28;19908;-81
2021/10/24 12:36:35;;;;;;;;;;;25.20;42.10;;;;;;5096782;28;19908;-85
2021/10/24 12:39:02;;;;;;;;;;;25.10;42.20;;;;;;5096188;28;19920;-81
2021/10/24 12:41:32;;;;;;;;;;;25.10;42.30;;;;;;5129409;27;19912;-83
2021/10/24 12:44:00;;;;;;;;;;;25.10;42.40;;;;;;5129286;27;19919;-85
2021/10/24 12:46:29;;;;;;;;;;;25.10;42.40;;;;;;5128710;27;19965;-82
2021/10/24 12:48:54;;;;;;;;;;;25.00;42.40;;;;;;5112082;28;20018;-83
2021/10/24 12:51:30;;;;;;;;;;;25.00;42.50;;;;;;5096493;28;19947;-81
2021/10/24 12:53:58;;;;;;;;;;;25.00;42.70;;;;;;5096215;28;20413;-81
2021/10/24 12:56:24;;;;;;;;;;;25.00;42.70;;;;;;5129341;27;20349;-84
2021/10/24 12:58:52;;;;;;;;;;;24.90;42.80;;;;;;5094791;28;19908;-83
2021/10/24 13:01:21;;;;;;;;;;;24.90;42.80;;;;;;5128083;27;20230;-80
2021/10/24 13:03:47;;;;;;;;;;;25.00;42.80;;;;;;5094845;28;19961;-83
2021/10/24 13:06:14;;;;;;;;;;;24.90;42.80;;;;;;5095731;28;19912;-82
2021/10/24 13:08:42;;;;;;;;;;;24.90;42.70;;;;;;5111600;28;20291;-82
2021/10/24 13:11:12;;;;;;;;;;;24.90;42.80;;;;;;5128503;27;19987;-82
2021/10/24 13:13:37;;;;;;;;;;;24.90;42.80;;;;;;5095903;28;19908;-83
2021/10/24 13:16:03;;;;;;;;;;;24.90;42.70;;;;;;5095567;28;19923;-83
2021/10/24 13:18:28;;;;;;;;;;;25.00;42.80;;;;;;5129013;27;19915;-85
2021/10/24 13:21:00;;;;;;;;;;;24.90;42.80;;;;;;5094985;28;20356;-80
2021/10/24 13:23:26;;;;;;;;;;;25.00;42.80;;;;;;5095581;28;19919;-81
2021/10/24 13:25:52;;;;;;;;;;;25.00;42.70;;;;;;5128717;27;20360;-80
2021/10/24 13:28:17;;;;;;;;;;;25.00;42.70;;;;;;5095629;28;19913;-81
2021/10/24 13:30:43;;;;;;;;;;;25.00;42.60;;;;;;5129095;27;19912;-83
2021/10/24 13:33:08;;;;;;;;;;;25.00;42.60;;;;;;5111402;28;19912;-86
2021/10/24 13:35:36;;;;;;;;;;;25.00;42.60;;;;;;5094592;28;19965;-83
2021/10/24 13:38:02;;;;;;;;;;;25.00;42.60;;;;;;5094505;28;20007;-84
2021/10/24 13:40:28;;;;;;;;;;;25.00;42.70;;;;;;5111550;28;19962;-83
2021/10/24 13:42:53;;;;;;;;;;;25.00;42.70;;;;;;5111244;28;20371;-84
2021/10/24 13:45:19;;;;;;;;;;;25.00;42.70;;;;;;5095235;28;20379;-83
2021/10/24 13:47:45;;;;;;;;;;;25.00;42.80;;;;;;5095291;28;19927;-84
2021/10/24 13:50:10;;;;;;;;;;;25.00;42.90;;;;;;5094359;28;19908;-85
2021/10/24 13:52:36;;;;;;;;;;;24.90;42.80;;;;;;5094279;28;20257;-83
2021/10/24 13:55:03;;;;;;;;;;;24.90;43.00;;;;;;5111352;28;20252;-83
2021/10/24 13:57:28;;;;;;;;;;;24.90;43.00;;;;;;5128397;28;20015;-84
2021/10/24 13:59:54;;;;;;;;;;;24.90;43.00;;;;;;5095161;28;20399;-82
2021/10/24 14:02:20;;;;;;;;;;;24.80;43.10;;;;;;5094446;28;19909;-82
2021/10/24 14:04:48;;;;;;;;;;;24.80;43.10;;;;;;5095250;28;19908;-86
2021/10/24 14:07:14;;;;;;;;;;;24.80;43.10;;;;;;5093892;28;20275;-82
2021/10/24 14:09:42;;;;;;;;;;;24.90;43.20;;;;;;5111119;28;19920;-87
2021/10/24 14:12:08;;;;;;;;;;;24.80;43.10;;;;;;5110559;28;20248;-83
2021/10/24 14:14:33;;;;;;;;;;;24.80;43.10;;;;;;5115010;28;19916;-84
2021/10/24 14:17:01;;;;;;;;;;;24.80;43.20;;;;;;5132397;27;19916;-84
2021/10/24 14:19:27;;;;;;;;;;;24.80;43.20;;;;;;5132252;27;19915;-83